Airfield :
LOGIN :

Register | Disclaimer

   EN    FR    IT 

 










Legend :    VFR   Marginal VFR   IFR   Intensive IFR   Very Intensive IFR
Visi :
Ceiling :
>= 8 km
>= 3000ft
5 to 8 km
1000 to 3000 ft
1500m to 5 km
500 to 1000 ft
800 to 1500m
200 to 500 ft
< 800m
< 200 ft
Symbols :   Thunderstorms  Fog  Heavy snow  Heavy precipitations  Wind > 20 kt
SIGMETs :     Misc.  Thunderstorms  Icing  Turbulence  Mountain Waves  Volcanic Ashes






- Airport Elevation : 274 ft
- IATA code : PUY


LDPL - Pula

CURRENT METAR :
  • 290830Z 07009KT 9999 FEW055 08/02 Q1015 NOSIG

EXPIRED METARs :
  • 290800Z 06010KT 9999 FEW055 08/02 Q1015 NOSIG
  • 290730Z 05008KT 9999 FEW050 08/02 Q1015 BECMG 08012KT
  • 290700Z 07006KT 9999 FEW050 07/02 Q1015 BECMG 08012KT
  • 290630Z 07004KT 9999 FEW050 07/01 Q1015 BECMG 08012KT
  • 290600Z 04004KT CAVOK 07/01 Q1015 BECMG 08012KT

TAF TAF LDPL
Valid from the 29 at 06:00 until the 30 at 06:00 UTC


290525Z 2906/3006 05007KT 9999 FEW050 TX11/2912Z TN06/3005Z
BECMG 2907/2909 08012KT



MET'MAP, your aeronautical weather chart ! - Copyright ORBIFLY December 2007 - Disclaimer

ORBIFLY MET'MAP TEAM :

Programming & Development : Alexandra Zaïnal
Original concept : Baudouin d'Aumeries
Technical & hardware support : Manuel Goepfert
Assistance : Marc-Olivier Méhu




SOURCES & CREDITS :

   NOAA